Time;durP1;ratioP1;P1;durP2;ratioP2;P2;SDS_P1;SDS_P2;PMS_P1;PMS_P2;Temp;Humidity;BMP_temperature;BMP_pressure;BME280_temperature;BME280_humidity;BME280_pressure;Samples;Min_cycle;Max_cycle;Signal;HPM_P1;HPM_P2
2021/04/22 00:00:13;;;;;;;24.00;12.13;;;;;;;4.53;99.45;97297.13;5022029;28;20029;-65
2021/04/22 00:02:39;;;;;;;19.77;10.52;;;;;;;4.80;99.18;97352.75;5023299;28;20073;-67
2021/04/22 00:05:28;;;;;;;17.52;10.88;;;;;;;4.95;100.00;97391.47;5023438;28;20069;-65
2021/04/22 00:07:55;;;;;;;18.55;11.32;;;;;;;5.09;100.00;97426.97;5023622;28;20034;-65
2021/04/22 00:10:33;;;;;;;17.95;11.30;;;;;;;4.35;100.00;97314.72;5021634;28;20040;-66
2021/04/22 00:12:58;;;;;;;18.15;9.75;;;;;;;4.86;100.00;97431.03;5023603;28;20037;-65
2021/04/22 00:15:23;;;;;;;18.58;10.05;;;;;;;4.76;100.00;97409.41;5023537;28;20044;-66
2021/04/22 00:17:52;;;;;;;19.15;9.75;;;;;;;4.25;100.00;97326.00;5023482;28;20534;-65
2021/04/22 00:20:18;;;;;;;16.20;9.43;;;;;;;4.22;100.00;97361.50;5023383;28;20033;-66
2021/04/22 00:22:45;;;;;;;16.60;8.00;;;;;;;3.95;100.00;97313.25;5038772;28;20045;-66
2021/04/22 00:25:12;;;;;;;12.68;7.45;;;;;;;4.77;100.00;97411.84;5023054;28;20060;-65
2021/04/22 00:27:37;;;;;;;15.23;7.43;;;;;;;4.18;100.00;97322.97;5023182;28;20076;-65
2021/04/22 00:30:06;;;;;;;15.82;8.75;;;;;;;4.90;100.00;97410.06;5025512;28;20538;-66
2021/04/22 00:32:31;;;;;;;13.70;7.30;;;;;;;4.64;100.00;97364.25;5027368;28;20042;-64
2021/04/22 00:34:57;;;;;;;13.65;8.45;;;;;;;4.89;100.00;97424.88;5042442;28;20029;-66
2021/04/22 00:37:22;;;;;;;14.63;8.73;;;;;;;4.88;100.00;97402.16;5027577;28;20450;-66
2021/04/22 00:39:47;;;;;;;12.80;8.40;;;;;;;4.64;100.00;97364.25;5042589;28;20040;-64
2021/04/22 00:42:13;;;;;;;11.85;7.63;;;;;;;4.82;100.00;97413.59;5027054;28;20037;-66
2021/04/22 00:44:39;;;;;;;12.57;8.32;;;;;;;3.91;100.00;97278.59;5027741;28;20029;-64
2021/04/22 00:47:05;;;;;;;16.90;8.93;;;;;;;4.55;100.00;97377.13;5026588;28;20098;-64
2021/04/22 00:49:30;;;;;;;18.15;10.55;;;;;;;4.32;100.00;97364.72;5049058;28;20104;-67
2021/04/22 00:51:56;;;;;;;17.58;9.35;;;;;;;4.73;100.00;97410.06;5024977;28;20057;-64
2021/04/22 00:54:22;;;;;;;11.68;7.40;;;;;;;4.65;100.00;97409.75;5027104;28;20512;-64
2021/04/22 00:56:48;;;;;;;10.82;7.22;;;;;;;4.63;100.00;97403.75;5025113;28;20041;-66
2021/04/22 00:59:13;;;;;;;40.15;16.92;;;;;;;4.23;100.00;97346.66;5025471;28;20528;-66
2021/04/22 01:01:39;;;;;;;21.60;11.88;;;;;;;4.68;100.00;97411.00;5033156;28;20062;-66
2021/04/22 01:04:05;;;;;;;14.80;9.13;;;;;;;4.43;100.00;97374.25;5007524;28;20041;-65
2021/04/22 01:06:31;;;;;;;14.90;9.10;;;;;;;4.77;99.74;97411.03;5006770;28;20064;-64
2021/04/22 01:08:57;;;;;;;14.40;9.13;;;;;;;4.77;100.00;97420.06;5007883;28;20499;-65
2021/04/22 01:11:29;;;;;;;12.90;7.47;;;;;;;4.28;99.39;97339.06;5006476;28;20038;-65
2021/04/22 01:13:55;;;;;;;12.95;7.95;;;;;;;1.05;98.57;96817.78;5022382;28;20476;-65
2021/04/22 01:16:20;;;;;;;17.05;8.68;;;;;;;4.87;99.15;97411.50;5006469;28;20099;-65
2021/04/22 01:18:46;;;;;;;17.88;9.57;;;;;;;4.53;100.00;97362.97;5022225;28;20444;-65
2021/04/22 01:21:25;;;;;;;13.93;8.82;;;;;;;4.65;100.00;97382.31;5021229;28;20046;-66
2021/04/22 01:23:51;;;;;;;16.45;10.13;;;;;;;4.72;99.54;97411.19;5007215;28;20489;-63
2021/04/22 01:26:20;;;;;;;19.52;11.35;;;;;;;4.40;99.00;97374.06;5006250;28;20509;-64
2021/04/22 01:28:46;;;;;;;15.90;10.05;;;;;;;4.23;98.80;97347.47;5005417;28;20125;-64
2021/04/22 01:31:12;;;;;;;14.65;9.00;;;;;;;4.72;98.83;97424.91;5004448;28;20561;-64
2021/04/22 01:33:38;;;;;;;15.23;9.52;;;;;;;4.73;98.88;97413.59;5006961;28;20484;-64
2021/04/22 01:36:04;;;;;;;17.55;9.40;;;;;;;4.76;99.04;97409.41;5006209;28;20026;-64
2021/04/22 01:38:30;;;;;;;14.38;8.77;;;;;;;4.24;99.40;97354.56;5006898;28;20030;-64
2021/04/22 01:40:57;;;;;;;14.45;9.05;;;;;;;4.46;100.00;97409.25;5020682;28;20037;-64
2021/04/22 01:43:22;;;;;;;21.15;11.02;;;;;;;4.31;100.00;97406.19;5006524;28;20041;-66
2021/04/22 01:45:48;;;;;;;13.85;8.90;;;;;;;3.58;100.00;97286.47;5005924;28;20030;-64
2021/04/22 01:48:14;;;;;;;17.15;8.90;;;;;;;4.25;100.00;97411.00;5020847;28;20093;-64
2021/04/22 01:50:39;;;;;;;16.73;9.10;;;;;;;3.31;100.00;97286.72;5006307;28;20801;-64
2021/04/22 01:53:06;;;;;;;15.38;8.45;;;;;;;4.14;100.00;97415.16;5021498;28;20342;-65
2021/04/22 01:55:38;;;;;;;33.17;13.93;;;;;;;4.31;100.00;97415.22;5004569;28;20117;-65
2021/04/22 01:58:06;;;;;;;25.05;12.18;;;;;;;3.81;100.00;97334.50;5006944;28;20107;-64
2021/04/22 02:00:40;;;;;;;24.58;11.75;;;;;;;4.36;100.00;97406.81;5004611;28;20533;-64
2021/04/22 02:03:07;;;;;;;15.05;9.30;;;;;;;4.09;100.00;97387.13;5025471;28;20037;-65
2021/04/22 02:05:37;;;;;;;15.43;8.75;;;;;;;3.49;100.00;97266.47;5023907;28;20064;-64
2021/04/22 02:08:03;;;;;;;17.48;10.10;;;;;;;4.41;100.00;97409.41;5024227;28;20579;-65
2021/04/22 02:10:28;;;;;;;18.75;10.02;;;;;;;3.84;99.67;97327.59;5025193;28;20502;-64
2021/04/22 02:12:54;;;;;;;16.90;10.10;;;;;;;4.41;100.00;97414.88;5026008;28;20227;-63
2021/04/22 02:15:24;;;;;;;20.83;11.52;;;;;;;4.45;100.00;97409.56;5024891;28;20041;-64
2021/04/22 02:17:51;;;;;;;18.88;10.63;;;;;;;4.38;98.67;97388.13;5025511;28;20029;-65
2021/04/22 02:20:16;;;;;;;15.18;9.02;;;;;;;4.50;97.55;97423.91;5023874;28;20508;-64
2021/04/22 02:22:43;;;;;;;15.07;8.77;;;;;;;3.85;97.00;97324.53;5025482;28;20048;-64
2021/04/22 02:25:11;;;;;;;15.93;9.55;;;;;;;4.42;97.54;97418.44;5025186;28;20048;-64
2021/04/22 02:27:38;;;;;;;16.00;10.00;;;;;;;4.41;97.64;97423.13;5023695;28;20155;-64
2021/04/22 02:30:10;;;;;;;15.18;10.25;;;;;;;4.38;97.29;97421.03;5025257;28;20037;-65
2021/04/22 02:32:36;;;;;;;15.88;9.95;;;;;;;4.29;97.68;97420.22;5023527;28;20034;-65
2021/04/22 02:35:03;;;;;;;18.98;13.25;;;;;;;3.99;98.70;97392.91;5025303;28;20052;-64
2021/04/22 02:37:28;;;;;;;20.25;12.70;;;;;;;3.72;98.72;97363.84;5025263;28;20029;-65
2021/04/22 02:39:54;;;;;;;18.20;12.20;;;;;;;4.12;99.98;97428.41;5025387;28;20444;-64
2021/04/22 02:42:19;;;;;;;20.85;13.23;;;;;;;4.15;100.00;97444.22;5023581;28;20037;-64
2021/04/22 02:44:45;;;;;;;27.85;18.35;;;;;;;3.96;100.00;97405.31;5025456;28;20064;-65
2021/04/22 02:47:10;;;;;;;23.10;16.38;;;;;;;3.87;100.00;97399.00;5024547;28;20029;-64
2021/04/22 02:49:36;;;;;;;25.50;16.00;;;;;;;3.96;100.00;97407.25;5024622;28;20050;-65
2021/04/22 02:52:01;;;;;;;27.15;18.15;;;;;;;4.13;100.00;97430.00;5023705;28;20195;-64
2021/04/22 02:54:27;;;;;;;31.85;21.40;;;;;;;3.94;100.00;97399.34;5025032;28;20105;-65
2021/04/22 02:56:52;;;;;;;26.55;17.75;;;;;;;4.22;100.00;97433.56;5024648;28;20032;-66
2021/04/22 02:59:17;;;;;;;19.75;11.25;;;;;;;4.10;100.00;97430.66;5024930;28;20585;-64
2021/04/22 03:01:43;;;;;;;18.35;9.75;;;;;;;4.07;100.00;97422.25;5016291;28;20083;-64
2021/04/22 03:04:08;;;;;;;20.05;10.02;;;;;;;3.63;99.98;97332.88;5004888;28;20037;-63
2021/04/22 03:06:34;;;;;;;15.32;9.23;;;;;;;4.28;99.57;97431.50;5004788;28;20731;-64
2021/04/22 03:08:59;;;;;;;14.63;8.98;;;;;;;4.25;100.00;97432.13;5005162;28;20497;-64
2021/04/22 03:11:25;;;;;;;21.38;9.88;;;;;;;4.07;99.60;97417.59;5004514;28;20059;-64
2021/04/22 03:13:50;;;;;;;24.17;13.10;;;;;;;3.77;100.00;97360.94;5020010;28;20904;-64
2021/04/22 03:16:16;;;;;;;28.00;13.73;;;;;;;3.17;100.00;97310.66;5002874;28;20738;-63
2021/04/22 03:18:41;;;;;;;19.17;10.75;;;;;;;4.11;100.00;97437.75;5005012;28;20406;-64
2021/04/22 03:21:07;;;;;;;16.75;9.88;;;;;;;4.24;99.35;97434.06;5004489;28;20455;-64
2021/04/22 03:23:32;;;;;;;19.23;10.30;;;;;;;4.25;99.17;97454.88;5005148;28;20045;-64
2021/04/22 03:25:58;;;;;;;17.95;9.63;;;;;;;4.25;99.00;97460.34;5002623;28;20033;-64
2021/04/22 03:28:23;;;;;;;17.85;9.85;;;;;;;3.91;98.94;97415.59;5019717;28;20054;-64
2021/04/22 03:30:49;;;;;;;18.63;11.00;;;;;;;4.15;98.21;97446.16;5004579;28;20044;-64
2021/04/22 03:33:14;;;;;;;17.63;10.43;;;;;;;4.00;97.98;97443.88;5002715;28;20505;-65
2021/04/22 03:35:39;;;;;;;20.73;12.25;;;;;;;3.94;98.92;97443.19;5003887;28;20030;-65
2021/04/22 03:38:05;;;;;;;23.88;13.68;;;;;;;3.95;99.08;97450.28;5002635;28;20042;-65
2021/04/22 03:40:30;;;;;;;26.85;13.05;;;;;;;3.88;99.70;97449.94;5004055;28;20034;-65
2021/04/22 03:42:56;;;;;;;19.52;11.25;;;;;;;4.00;99.60;97449.34;5004465;28;20044;-64
2021/04/22 03:45:24;;;;;;;19.85;11.82;;;;;;;3.98;98.58;97459.81;5018791;28;20046;-65
2021/04/22 03:47:49;;;;;;;20.08;12.38;;;;;;;3.55;98.06;97374.75;5004035;28;20053;-64
2021/04/22 03:50:17;;;;;;;17.25;11.18;;;;;;;3.91;98.55;97432.88;5001988;28;20432;-65
2021/04/22 03:52:44;;;;;;;21.90;10.80;;;;;;;3.97;99.49;97456.25;5019600;28;20034;-64
2021/04/22 03:55:11;;;;;;;20.38;12.20;;;;;;;3.68;99.93;97393.00;5002306;28;20763;-65
2021/04/22 03:57:37;;;;;;;18.42;11.48;;;;;;;3.48;99.84;97351.69;5002550;28;20069;-65
2021/04/22 04:00:05;;;;;;;20.33;13.27;;;;;;;4.12;100.00;97457.75;5002684;28;20072;-64
2021/04/22 04:02:31;;;;;;;33.95;18.55;;;;;;;4.30;100.00;97470.38;5017790;28;20492;-65
2021/04/22 04:04:56;;;;;;;35.67;20.85;;;;;;;4.33;100.00;97458.78;5023753;28;20152;-65
2021/04/22 04:07:21;;;;;;;30.17;18.20;;;;;;;4.38;100.00;97456.66;5021568;28;20037;-65
2021/04/22 04:09:47;;;;;;;22.05;12.07;;;;;;;4.47;100.00;97452.00;5038651;28;20416;-64
2021/04/22 04:12:12;;;;;;;21.33;12.43;;;;;;;3.76;100.00;97331.91;5021567;28;20045;-64
2021/04/22 04:14:38;;;;;;;25.10;12.70;;;;;;;2.21;100.00;97082.88;5023331;28;20110;-65
2021/04/22 04:17:04;;;;;;;22.13;12.63;;;;;;;4.01;100.00;97364.06;5021142;28;20026;-65
2021/04/22 04:19:30;;;;;;;13.73;8.82;;;;;;;4.57;100.00;97492.84;5023721;28;20044;-65
2021/04/22 04:21:55;;;;;;;20.92;10.60;;;;;;;4.73;100.00;97464.94;5022667;28;20419;-65
2021/04/22 04:24:20;;;;;;;18.60;12.30;;;;;;;4.66;97.89;97433.28;5023618;28;20029;-65
2021/04/22 04:26:46;;;;;;;22.20;11.80;;;;;;;5.06;97.71;97479.78;5022985;28;20032;-65
2021/04/22 04:29:12;;;;;;;22.38;13.48;;;;;;;5.17;98.30;97484.59;5023251;28;20134;-65
2021/04/22 04:31:37;;;;;;;22.80;14.82;;;;;;;4.75;97.31;97414.09;5022778;28;20072;-65
2021/04/22 04:34:03;;;;;;;24.45;15.35;;;;;;;5.25;96.77;97431.63;5022868;28;20515;-65
2021/04/22 04:36:29;;;;;;;26.00;14.63;;;;;;;5.70;96.04;97486.94;5022980;28;20115;-65
2021/04/22 04:38:55;;;;;;;25.00;14.43;;;;;;;5.04;95.11;97385.97;5023715;28;20029;-65
2021/04/22 04:41:20;;;;;;;24.48;13.02;;;;;;;5.94;94.31;97467.97;5023246;28;20040;-65
2021/04/22 04:43:46;;;;;;;21.33;14.73;;;;;;;5.85;93.43;97448.75;5024026;28;20480;-64
2021/04/22 04:46:14;;;;;;;24.48;15.40;;;;;;;6.35;92.55;97484.59;5022857;28;20587;-64
2021/04/22 04:48:39;;;;;;;33.88;21.48;;;;;;;6.56;92.54;97496.41;5023081;28;20071;-66
2021/04/22 04:51:05;;;;;;;35.13;22.10;;;;;;;6.37;90.20;97441.00;5020971;28;20037;-65
2021/04/22 04:53:31;;;;;;;42.65;25.13;;;;;;;6.86;90.04;97500.75;5021305;28;20152;-65
2021/04/22 04:55:56;;;;;;;65.63;33.58;;;;;;;6.96;90.87;97494.84;5020980;28;20488;-67
2021/04/22 04:58:22;;;;;;;61.08;35.60;;;;;;;7.15;90.39;97492.44;5021673;28;20091;-66
2021/04/22 05:00:48;;;;;;;71.90;38.60;;;;;;;7.23;90.55;97491.53;5022553;28;20083;-66
2021/04/22 05:03:13;;;;;;;71.05;40.17;;;;;;;7.51;90.28;97500.84;5003550;28;20042;-66
2021/04/22 05:05:39;;;;;;;58.00;32.47;;;;;;;7.73;90.41;97497.69;5002973;28;20030;-66
2021/04/22 05:08:05;;;;;;;41.65;26.05;;;;;;;7.87;88.75;97504.84;5003082;28;20491;-65
2021/04/22 05:10:30;;;;;;;38.03;25.38;;;;;;;7.96;88.97;97472.44;5003470;28;20524;-65
2021/04/22 05:12:55;;;;;;;38.20;24.85;;;;;;;7.96;88.12;97439.34;5001880;28;20033;-65
2021/04/22 05:15:21;;;;;;;47.35;27.13;;;;;;;8.43;87.14;97487.44;5003803;28;20088;-65
2021/04/22 05:17:46;;;;;;;44.17;22.90;;;;;;;8.68;86.00;97483.50;5007048;28;20096;-65
2021/04/22 05:20:12;;;;;;;43.17;20.77;;;;;;;8.83;85.47;97480.06;5005094;28;20084;-65
2021/04/22 05:22:38;;;;;;;34.72;18.35;;;;;;;8.20;84.58;97384.19;5006834;28;20099;-65
2021/04/22 05:25:04;;;;;;;40.50;19.67;;;;;;;8.99;84.65;97480.94;5006642;28;20129;-65
2021/04/22 05:27:30;;;;;;;30.08;17.95;;;;;;;9.04;83.77;97475.19;5006431;28;20143;-65
2021/04/22 05:29:55;;;;;;;40.97;20.95;;;;;;;8.13;83.22;97296.47;5005404;28;20080;-65
2021/04/22 05:32:21;;;;;;;32.55;21.15;;;;;;;9.07;81.64;97410.91;5006449;28;20040;-65
2021/04/22 05:34:46;;;;;;;34.70;21.73;;;;;;;9.58;79.84;97478.31;5007025;28;20057;-65
2021/04/22 05:37:12;;;;;;;35.65;22.10;;;;;;;9.38;81.06;97474.59;5006061;28;20180;-65
2021/04/22 05:39:37;;;;;;;36.35;21.40;;;;;;;8.93;80.83;97408.53;5012846;28;20071;-67
2021/04/22 05:42:03;;;;;;;30.73;20.15;;;;;;;9.07;81.00;97386.84;5020420;28;20493;-68
2021/04/22 05:44:28;;;;;;;27.95;17.98;;;;;;;9.29;79.21;97390.19;5025636;28;20338;-68
2021/04/22 05:46:54;;;;;;;22.70;15.57;;;;;;;9.66;78.17;97414.50;5023363;28;20037;-66
2021/04/22 05:49:19;;;;;;;24.00;15.63;;;;;;;8.98;78.54;97294.19;5055030;28;20064;-66
2021/04/22 05:51:45;;;;;;;26.35;16.30;;;;;;;9.95;78.23;97465.84;5041877;28;20035;-70
2021/04/22 05:54:12;;;;;;;21.52;13.93;;;;;;;9.27;79.48;97307.63;5024108;28;20052;-66
2021/04/22 05:56:38;;;;;;;22.55;13.45;;;;;;;10.17;79.45;97419.03;5024348;28;20052;-69
2021/04/22 05:59:04;;;;;;;20.15;12.48;;;;;;;10.72;79.64;97500.25;5025421;28;20038;-67
2021/04/22 06:01:30;;;;;;;19.50;12.65;;;;;;;10.46;80.77;97479.44;5023608;28;20026;-67
2021/04/22 06:03:56;;;;;;;19.40;12.43;;;;;;;9.98;79.76;97371.88;5025218;28;20428;-65
2021/04/22 06:06:21;;;;;;;17.35;11.52;;;;;;;9.94;79.43;97321.16;5022831;28;20556;-64
2021/04/22 06:08:47;;;;;;;16.40;11.38;;;;;;;11.21;77.58;97490.28;5024733;28;20095;-66
2021/04/22 06:11:12;;;;;;;15.15;10.52;;;;;;;8.85;76.37;97118.66;5024313;28;20079;-67
2021/04/22 06:13:38;;;;;;;15.63;9.70;;;;;;;11.52;74.26;97507.59;5024489;28;20114;-68
2021/04/22 06:16:04;;;;;;;12.10;9.48;;;;;;;11.68;71.68;97493.69;5024455;28;20065;-69
2021/04/22 06:18:30;;;;;;;12.35;9.82;;;;;;;11.96;71.75;97491.47;5023560;28;20581;-67
2021/04/22 06:20:55;;;;;;;15.98;11.20;;;;;;;11.70;71.27;97463.59;5022258;28;20029;-69
2021/04/22 06:23:21;;;;;;;15.18;10.45;;;;;;;12.07;71.94;97481.34;5024666;28;20033;-65
2021/04/22 06:25:46;;;;;;;18.90;11.68;;;;;;;11.99;70.09;97454.63;5022735;28;20037;-66
2021/04/22 06:28:12;;;;;;;12.75;9.65;;;;;;;11.76;69.49;97357.44;5022401;28;20029;-65
2021/04/22 06:30:37;;;;;;;13.32;9.93;;;;;;;12.70;68.33;97474.09;5023451;28;20021;-66
2021/04/22 06:33:03;;;;;;;13.63;9.52;;;;;;;12.44;67.62;97439.91;5021916;28;20041;-66
2021/04/22 06:35:29;;;;;;;12.10;8.82;;;;;;;10.89;66.52;97145.13;5021476;28;20033;-67
2021/04/22 06:37:55;;;;;;;13.25;8.57;;;;;;;11.85;65.68;97288.63;5022973;28;20072;-65
2021/04/22 06:40:22;;;;;;;17.50;11.23;;;;;;;12.75;66.72;97454.31;5022502;28;20029;-65
2021/04/22 06:42:48;;;;;;;13.27;9.95;;;;;;;13.19;64.44;97480.41;5038034;28;20030;-62
2021/04/22 06:45:15;;;;;;;12.73;9.23;;;;;;;13.29;64.18;97474.16;5023543;28;20033;-65
2021/04/22 06:47:42;;;;;;;12.90;8.95;;;;;;;12.05;66.03;97342.06;5023379;28;20037;-67
2021/04/22 06:50:11;;;;;;;10.73;7.70;;;;;;;12.81;64.36;97416.66;5022828;28;20399;-66
2021/04/22 06:52:38;;;;;;;13.55;8.65;;;;;;;11.62;64.19;97245.38;5022831;28;20038;-63
2021/04/22 06:55:07;;;;;;;14.38;9.48;;;;;;;12.58;65.25;97417.91;5022772;28;20129;-63
2021/04/22 06:57:33;;;;;;;11.05;8.35;;;;;;;12.46;64.74;97341.13;5021871;28;20029;-65
2021/04/22 06:59:58;;;;;;;11.82;8.93;;;;;;;11.96;64.03;97305.44;5023747;28;20040;-62
2021/04/22 07:02:24;;;;;;;9.50;8.50;;;;;;;13.25;64.41;97456.63;5023085;28;20223;-63
2021/04/22 07:04:50;;;;;;;12.82;9.40;;;;;;;13.80;63.51;97477.19;5023279;28;20069;-64
2021/04/22 07:07:15;;;;;;;13.45;9.43;;;;;;;13.67;64.42;97440.44;5021884;28;20044;-66
2021/04/22 07:09:41;;;;;;;12.50;8.55;;;;;;;14.09;62.07;97472.72;5022941;28;20120;-64
2021/04/22 07:12:07;;;;;;;15.85;9.55;;;;;;;14.04;62.28;97475.84;5021144;28;20033;-67
2021/04/22 07:14:32;;;;;;;7.93;7.10;;;;;;;14.01;62.22;97483.00;5022046;28;20033;-65
2021/04/22 07:17:00;;;;;;;8.80;7.72;;;;;;;13.49;63.07;97450.59;5021552;28;20520;-67
2021/04/22 07:19:26;;;;;;;13.10;8.57;;;;;;;13.78;63.96;97456.47;5023341;28;20443;-69
2021/04/22 07:21:53;;;;;;;7.75;6.90;;;;;;;13.75;60.97;97391.22;5022521;28;20029;-68
2021/04/22 07:24:18;;;;;;;14.45;8.55;;;;;;;13.78;62.69;97372.94;5020706;28;20037;-71
2021/04/22 07:26:44;;;;;;;10.90;7.22;;;;;;;12.25;61.86;97124.16;5023193;28;20364;-68
2021/04/22 07:29:09;;;;;;;9.85;7.82;;;;;;;13.87;60.35;97320.50;5024142;28;20041;-71
2021/04/22 07:31:34;;;;;;;7.18;6.45;;;;;;;14.60;61.55;97468.88;5022580;28;20069;-70
2021/04/22 07:34:00;;;;;;;22.58;16.95;;;;;;;15.01;60.18;97466.75;5022502;28;20033;-68
2021/04/22 07:36:25;;;;;;;9.73;8.50;;;;;;;15.25;61.15;97477.28;5022980;28;20068;-70
2021/04/22 07:38:51;;;;;;;14.20;10.98;;;;;;;13.04;59.79;97055.88;5022940;28;20029;-71
2021/04/22 07:41:16;;;;;;;7.85;6.40;;;;;;;15.80;58.50;97450.84;5021470;28;20044;-69
2021/04/22 07:43:42;;;;;;;6.82;5.60;;;;;;;16.08;53.18;97461.25;5022751;28;20462;-68
2021/04/22 07:46:08;;;;;;;6.88;6.18;;;;;;;15.77;53.05;97384.59;5021920;28;20041;-68
2021/04/22 07:48:33;;;;;;;7.13;6.20;;;;;;;16.12;53.77;97422.97;5020382;28;20050;-67
2021/04/22 07:50:59;;;;;;;9.43;6.47;;;;;;;16.54;54.57;97456.56;5021343;28;20040;-67
2021/04/22 07:53:25;;;;;;;7.53;6.43;;;;;;;16.42;56.62;97443.75;5022064;28;20037;-67
2021/04/22 07:55:50;;;;;;;8.48;6.85;;;;;;;16.54;56.60;97462.97;5022232;28;20091;-66
2021/04/22 07:58:16;;;;;;;7.05;6.35;;;;;;;16.66;55.25;97452.59;5022301;28;20374;-67
2021/04/22 08:00:43;;;;;;;8.85;7.40;;;;;;;15.02;56.44;97179.00;5021071;28;20562;-67
2021/04/22 08:03:12;;;;;;;6.95;6.25;;;;;;;16.42;55.14;97367.47;5021615;28;20073;-66
2021/04/22 08:05:38;;;;;;;10.48;7.22;;;;;;;17.17;56.14;97433.31;5021766;28;20068;-68
2021/04/22 08:08:08;;;;;;;8.93;6.82;;;;;;;17.36;54.20;97430.06;5021149;28;20500;-68
2021/04/22 08:10:39;;;;;;;7.03;6.32;;;;;;;15.47;50.96;97118.06;5022189;28;20041;-65
2021/04/22 08:13:07;;;;;;;6.10;5.50;;;;;;;16.87;49.71;97424.56;5030508;28;20061;-65
2021/04/22 08:15:34;;;;;;;6.30;5.70;;;;;;;17.20;50.05;97438.13;5021618;28;20042;-69
2021/04/22 08:18:01;;;;;;;5.45;4.60;;;;;;;17.13;46.27;97438.13;5020501;28;20052;-69
2021/04/22 08:20:27;;;;;;;5.28;4.78;;;;;;;17.44;44.81;97431.63;5020411;28;20064;-63
2021/04/22 08:22:55;;;;;;;4.53;4.13;;;;;;;15.70;42.12;97172.28;5021960;28;20041;-70
2021/04/22 08:25:48;;;;;;;7.07;5.00;;;;;;;17.58;43.32;97417.59;5021288;28;20052;-69
2021/04/22 08:28:16;;;;;;;7.68;4.13;;;;;;;15.71;43.92;97128.41;5016440;28;20577;-71
2021/04/22 08:30:52;;;;;;;6.47;5.25;;;;;;;17.94;45.72;97421.84;5019281;28;20102;-64
2021/04/22 08:33:22;;;;;;;7.22;5.53;;;;;;;18.02;45.40;97426.16;5020940;28;20034;-71
2021/04/22 08:35:48;;;;;;;6.28;4.88;;;;;;;18.00;45.33;97394.97;5018482;28;20080;-67
2021/04/22 08:38:14;;;;;;;7.55;5.22;;;;;;;18.38;44.08;97424.78;5020713;28;20807;-69
2021/04/22 08:40:40;;;;;;;10.55;5.97;;;;;;;18.61;40.83;97416.56;5019966;28;20047;-69
2021/04/22 08:43:06;;;;;;;7.80;6.43;;;;;;;18.85;40.07;97417.53;5017757;28;20501;-66
2021/04/22 08:45:32;;;;;;;5.55;5.05;;;;;;;19.08;39.39;97418.50;5019980;28;20048;-66
2021/04/22 08:47:59;;;;;;;5.68;5.15;;;;;;;19.27;35.01;97426.34;5036791;28;20816;-64
2021/04/22 08:50:28;;;;;;;11.45;5.80;;;;;;;19.30;32.26;97414.28;5022878;28;20041;-61
2021/04/22 08:52:56;;;;;;;4.85;4.45;;;;;;;19.10;31.20;97396.44;5026227;28;20029;-66
2021/04/22 08:55:26;;;;;;;5.60;4.55;;;;;;;19.17;33.27;97421.63;5024673;28;20257;-64
2021/04/22 08:57:52;;;;;;;5.15;4.63;;;;;;;19.03;32.65;97365.59;5031840;28;20037;-65
2021/04/22 09:00:22;;;;;;;8.55;6.30;;;;;;;19.29;31.10;97418.31;5037628;28;20044;-62
2021/04/22 09:02:48;;;;;;;6.10;4.45;;;;;;;18.64;33.15;97320.31;5026134;28;20033;-62
2021/04/22 09:05:15;;;;;;;5.45;4.45;;;;;;;19.26;30.73;97416.31;5023767;28;20033;-62
2021/04/22 09:07:42;;;;;;;5.97;4.90;;;;;;;19.16;31.55;97414.41;5026579;28;20083;-62
2021/04/22 09:10:09;;;;;;;7.35;4.63;;;;;;;19.04;31.83;97405.72;5023912;28;20068;-64
2021/04/22 09:12:34;;;;;;;5.70;4.30;;;;;;;18.49;32.39;97344.13;5021570;28;20083;-65
2021/04/22 09:15:10;;;;;;;4.65;4.20;;;;;;;18.38;31.75;97306.13;5025130;28;20085;-63
2021/04/22 09:17:36;;;;;;;4.07;3.63;;;;;;;18.76;31.17;97378.72;5022753;28;20087;-62
2021/04/22 09:20:02;;;;;;;5.95;4.40;;;;;;;16.94;32.14;97097.13;5025295;28;20033;-62
2021/04/22 09:22:42;;;;;;;5.70;4.30;;;;;;;18.03;31.70;97312.84;5026124;28;20037;-66
2021/04/22 09:25:21;;;;;;;4.70;4.30;;;;;;;17.84;31.25;97204.06;5023875;28;20458;-62
2021/04/22 09:27:48;;;;;;;4.65;4.25;;;;;;;19.20;31.52;97398.34;5023839;28;20032;-63
2021/04/22 09:30:16;;;;;;;5.10;4.28;;;;;;;18.89;31.02;97357.34;5025646;28;20113;-62
2021/04/22 09:32:42;;;;;;;4.78;4.00;;;;;;;19.21;31.11;97394.31;5024527;28;20063;-65
2021/04/22 09:35:13;;;;;;;5.50;4.07;;;;;;;19.44;30.85;97407.72;5025857;28;20540;-62
2021/04/22 09:37:47;;;;;;;4.55;4.25;;;;;;;19.45;30.89;97398.88;5026487;28;20029;-63
2021/04/22 09:40:22;;;;;;;4.28;3.97;;;;;;;19.27;31.56;97401.06;5024839;28;20115;-62
2021/04/22 09:42:48;;;;;;;6.85;4.82;;;;;;;19.00;30.75;97394.53;5024228;28;20045;-62
2021/04/22 09:45:17;;;;;;;5.38;4.82;;;;;;;18.86;31.46;97394.66;5006580;28;20088;-65
2021/04/22 09:47:44;;;;;;;5.45;4.43;;;;;;;18.85;32.37;97398.69;5022935;28;20033;-63
2021/04/22 09:50:14;;;;;;;6.53;5.18;;;;;;;18.73;32.39;97351.47;5023972;28;20576;-70
2021/04/22 09:52:42;;;;;;;6.28;5.13;;;;;;;19.20;33.07;97381.47;5023819;28;20045;-69
2021/04/22 09:55:11;;;;;;;7.72;5.38;;;;;;;19.32;32.51;97357.69;5025371;28;20033;-63
2021/04/22 09:57:37;;;;;;;7.05;5.85;;;;;;;18.66;31.59;97289.84;5025509;28;20125;-63
2021/04/22 10:00:09;;;;;;;5.57;5.07;;;;;;;18.26;32.51;97186.81;5017544;28;20113;-68
2021/04/22 10:02:42;;;;;;;5.35;4.72;;;;;;;19.62;31.16;97391.41;5024489;28;20504;-65
2021/04/22 10:05:16;;;;;;;5.90;5.30;;;;;;;18.82;30.09;97256.38;5025194;28;20026;-64
2021/04/22 10:07:42;;;;;;;8.18;5.85;;;;;;;19.73;29.49;97380.06;5022001;28;20414;-64
2021/04/22 10:10:21;;;;;;;5.18;4.68;;;;;;;19.19;28.95;97300.44;5021885;28;20041;-63
2021/04/22 10:12:48;;;;;;;5.28;4.47;;;;;;;18.99;29.82;97303.09;5023766;28;20040;-64
2021/04/22 10:15:21;;;;;;;5.07;4.57;;;;;;;19.54;30.42;97379.47;5021245;28;20508;-64
2021/04/22 10:18:03;;;;;;;5.03;3.95;;;;;;;19.52;28.86;97367.09;5023402;28;20040;-64
2021/04/22 10:20:32;;;;;;;5.90;5.32;;;;;;;19.99;29.82;97370.84;5021539;28;20056;-65
2021/04/22 10:22:58;;;;;;;5.35;4.85;;;;;;;20.12;28.65;97364.19;5024832;28;20199;-64
2021/04/22 10:25:29;;;;;;;5.03;4.63;;;;;;;19.52;29.50;97297.59;5025395;28;20564;-65
2021/04/22 10:28:02;;;;;;;4.95;4.55;;;;;;;20.17;30.14;97354.53;5025434;28;20107;-64
2021/04/22 10:30:28;;;;;;;5.18;4.65;;;;;;;19.65;28.76;97277.38;5025093;28;20044;-64
2021/04/22 10:32:53;;;;;;;5.13;4.68;;;;;;;20.27;29.07;97345.09;5023509;28;20033;-64
2021/04/22 10:35:21;;;;;;;4.75;4.03;;;;;;;20.43;28.56;97345.25;5024178;28;20040;-64
2021/04/22 10:37:50;;;;;;;5.68;5.18;;;;;;;20.25;29.37;97285.69;5022654;28;20111;-65
2021/04/22 10:40:18;;;;;;;4.35;4.05;;;;;;;19.75;28.35;97246.28;5023606;28;20029;-64
2021/04/22 10:42:44;;;;;;;5.05;4.53;;;;;;;19.98;29.29;97346.75;5023213;28;20785;-65
2021/04/22 10:45:12;;;;;;;6.32;4.75;;;;;;;19.12;30.56;97244.34;5024374;28;20435;-64
2021/04/22 10:47:38;;;;;;;5.05;4.40;;;;;;;19.82;30.88;97338.16;5017158;28;20045;-64
2021/04/22 10:50:09;;;;;;;5.28;4.32;;;;;;;19.21;29.53;97253.88;5022745;28;20523;-63
2021/04/22 10:52:35;;;;;;;4.32;4.00;;;;;;;17.81;30.02;97087.19;5017910;28;20040;-64
2021/04/22 10:55:00;;;;;;;5.78;5.10;;;;;;;19.25;30.54;97265.81;5023936;28;20033;-64
2021/04/22 10:57:31;;;;;;;4.80;4.43;;;;;;;19.65;29.87;97311.09;5021140;28;20057;-63
2021/04/22 11:00:07;;;;;;;5.93;4.28;;;;;;;19.98;29.27;97329.88;5024686;28;20452;-62
2021/04/22 11:02:41;;;;;;;4.68;4.20;;;;;;;19.81;28.13;97302.81;5021952;28;20033;-63
2021/04/22 11:05:21;;;;;;;4.65;4.00;;;;;;;19.98;28.81;97324.25;5022872;28;20037;-66
2021/04/22 11:07:58;;;;;;;5.22;4.45;;;;;;;19.98;29.56;97341.91;5021582;28;20428;-62
2021/04/22 11:10:44;;;;;;;7.90;5.25;;;;;;;19.70;29.58;97217.84;5004690;28;20037;-66
2021/04/22 11:13:25;;;;;;;5.68;5.18;;;;;;;20.11;29.27;97323.22;5011823;28;20037;-63
2021/04/22 11:15:57;;;;;;;6.43;5.32;;;;;;;20.00;29.52;97327.41;5022228;28;20037;-63
2021/04/22 11:18:37;;;;;;;5.45;4.95;;;;;;;18.35;28.66;97068.53;5022667;28;20115;-63
2021/04/22 11:21:24;;;;;;;5.40;4.72;;;;;;;19.90;28.19;97260.91;5017238;28;20036;-62
2021/04/22 11:23:51;;;;;;;5.47;4.72;;;;;;;20.62;28.55;97310.72;5022771;28;20127;-65
2021/04/22 11:26:24;;;;;;;7.30;5.10;;;;;;;20.86;27.69;97315.13;5022940;28;20069;-66